sensor_id;sensor_type;location;lat;lon;timestamp;pressure;altitude;pressure_sealevel;temperature;humidity
52393;BME280;38320;39.764;2.710;2023-04-15T00:01:03;100799.47;;;18.54;42.43
52393;BME280;38320;39.764;2.710;2023-04-15T00:03:30;100795.31;;;18.59;41.68
52393;BME280;38320;39.764;2.710;2023-04-15T00:05:56;100804.31;;;18.68;46.68
52393;BME280;38320;39.764;2.710;2023-04-15T00:08:22;100809.00;;;18.66;44.45
52393;BME280;38320;39.764;2.710;2023-04-15T00:10:47;100821.28;;;18.69;42.70
52393;BME280;38320;39.764;2.710;2023-04-15T00:13:13;100811.38;;;18.69;45.57
52393;BME280;38320;39.764;2.710;2023-04-15T00:15:39;100811.94;;;18.73;48.40
52393;BME280;38320;39.764;2.710;2023-04-15T00:18:05;100802.09;;;18.64;47.90
52393;BME280;38320;39.764;2.710;2023-04-15T00:20:33;100813.16;;;18.60;47.39
52393;BME280;38320;39.764;2.710;2023-04-15T00:22:58;100796.47;;;18.57;44.77
52393;BME280;38320;39.764;2.710;2023-04-15T00:25:25;100809.31;;;18.63;44.33
52393;BME280;38320;39.764;2.710;2023-04-15T00:27:50;100805.47;;;18.66;43.93
52393;BME280;38320;39.764;2.710;2023-04-15T00:30:16;100789.84;;;18.69;43.91
52393;BME280;38320;39.764;2.710;2023-04-15T00:32:41;100794.91;;;18.72;43.76
52393;BME280;38320;39.764;2.710;2023-04-15T00:35:07;100805.06;;;18.79;43.92
52393;BME280;38320;39.764;2.710;2023-04-15T00:37:33;100787.38;;;18.76;43.79
52393;BME280;38320;39.764;2.710;2023-04-15T00:40:00;100785.50;;;18.76;46.88
52393;BME280;38320;39.764;2.710;2023-04-15T00:42:26;100802.19;;;18.80;46.26
52393;BME280;38320;39.764;2.710;2023-04-15T00:44:52;100796.28;;;18.76;46.17
52393;BME280;38320;39.764;2.710;2023-04-15T00:47:17;100798.81;;;18.78;44.91
52393;BME280;38320;39.764;2.710;2023-04-15T00:49:44;100797.13;;;18.77;44.59
52393;BME280;38320;39.764;2.710;2023-04-15T00:52:09;100797.00;;;18.79;44.87
52393;BME280;38320;39.764;2.710;2023-04-15T00:54:35;100800.50;;;18.79;44.30
52393;BME280;38320;39.764;2.710;2023-04-15T00:57:04;100794.66;;;18.84;44.42
52393;BME280;38320;39.764;2.710;2023-04-15T00:59:30;100791.97;;;18.84;44.92
52393;BME280;38320;39.764;2.710;2023-04-15T01:01:57;100786.59;;;18.84;44.65
52393;BME280;38320;39.764;2.710;2023-04-15T01:04:24;100788.28;;;18.85;44.80
52393;BME280;38320;39.764;2.710;2023-04-15T01:06:49;100785.03;;;18.81;44.69
52393;BME280;38320;39.764;2.710;2023-04-15T01:09:15;100774.59;;;18.78;44.57
52393;BME280;38320;39.764;2.710;2023-04-15T01:11:41;100782.03;;;18.84;44.53
52393;BME280;38320;39.764;2.710;2023-04-15T01:14:08;100782.56;;;18.88;46.06
52393;BME280;38320;39.764;2.710;2023-04-15T01:16:34;100781.53;;;18.81;44.94
52393;BME280;38320;39.764;2.710;2023-04-15T01:19:01;100766.84;;;18.75;44.74
52393;BME280;38320;39.764;2.710;2023-04-15T01:21:26;100780.84;;;18.79;44.65
52393;BME280;38320;39.764;2.710;2023-04-15T01:23:54;100771.44;;;18.83;44.95
52393;BME280;38320;39.764;2.710;2023-04-15T01:26:21;100797.22;;;18.85;44.66
52393;BME280;38320;39.764;2.710;2023-04-15T01:28:47;100797.34;;;18.84;44.74
52393;BME280;38320;39.764;2.710;2023-04-15T01:31:14;100802.38;;;18.79;44.67
52393;BME280;38320;39.764;2.710;2023-04-15T01:33:41;100797.69;;;18.81;44.80
52393;BME280;38320;39.764;2.710;2023-04-15T01:36:07;100789.22;;;18.75;44.79
52393;BME280;38320;39.764;2.710;2023-04-15T01:38:34;100796.81;;;18.80;45.03
52393;BME280;38320;39.764;2.710;2023-04-15T01:41:00;100791.44;;;18.80;45.34
52393;BME280;38320;39.764;2.710;2023-04-15T01:43:27;100804.06;;;18.80;45.68
52393;BME280;38320;39.764;2.710;2023-04-15T01:45:52;100798.97;;;18.76;45.07
52393;BME280;38320;39.764;2.710;2023-04-15T01:48:18;100784.50;;;18.78;45.41
52393;BME280;38320;39.764;2.710;2023-04-15T01:50:44;100780.31;;;18.75;45.44
52393;BME280;38320;39.764;2.710;2023-04-15T01:53:09;100774.59;;;18.78;46.26
52393;BME280;38320;39.764;2.710;2023-04-15T01:55:35;100787.19;;;18.78;45.41
52393;BME280;38320;39.764;2.710;2023-04-15T01:58:01;100791.44;;;18.80;45.32
52393;BME280;38320;39.764;2.710;2023-04-15T02:00:27;100788.59;;;18.82;45.29
52393;BME280;38320;39.764;2.710;2023-04-15T02:02:52;100808.28;;;18.82;45.35
52393;BME280;38320;39.764;2.710;2023-04-15T02:05:18;100815.34;;;18.83;45.51
52393;BME280;38320;39.764;2.710;2023-04-15T02:07:44;100813.97;;;18.79;45.29
52393;BME280;38320;39.764;2.710;2023-04-15T02:10:10;100812.44;;;18.76;45.55
52393;BME280;38320;39.764;2.710;2023-04-15T02:12:38;100808.50;;;18.71;45.67
52393;BME280;38320;39.764;2.710;2023-04-15T02:15:04;100809.06;;;18.74;46.09
52393;BME280;38320;39.764;2.710;2023-04-15T02:17:33;100812.06;;;18.71;46.16
52393;BME280;38320;39.764;2.710;2023-04-15T02:19:59;100811.69;;;18.66;46.63
52393;BME280;38320;39.764;2.710;2023-04-15T02:22:25;100818.47;;;18.70;46.05
52393;BME280;38320;39.764;2.710;2023-04-15T02:24:50;100821.28;;;18.69;45.79
52393;BME280;38320;39.764;2.710;2023-04-15T02:27:16;100823.84;;;18.70;45.55
52393;BME280;38320;39.764;2.710;2023-04-15T02:29:43;100820.47;;;18.68;45.21
52393;BME280;38320;39.764;2.710;2023-04-15T02:32:10;100808.00;;;18.67;44.95
52393;BME280;38320;39.764;2.710;2023-04-15T02:34:36;100817.44;;;18.71;45.04
52393;BME280;38320;39.764;2.710;2023-04-15T02:37:08;100826.38;;;18.72;44.70
52393;BME280;38320;39.764;2.710;2023-04-15T02:39:34;100816.91;;;18.68;44.48
52393;BME280;38320;39.764;2.710;2023-04-15T02:41:59;100823.47;;;18.65;43.77
52393;BME280;38320;39.764;2.710;2023-04-15T02:44:26;100822.25;;;18.59;43.05
52393;BME280;38320;39.764;2.710;2023-04-15T02:46:52;100845.97;;;18.64;43.37
52393;BME280;38320;39.764;2.710;2023-04-15T02:49:22;100846.31;;;18.61;42.82
52393;BME280;38320;39.764;2.710;2023-04-15T02:51:48;100862.63;;;18.59;43.18
52393;BME280;38320;39.764;2.710;2023-04-15T02:54:21;100876.22;;;18.58;43.26
52393;BME280;38320;39.764;2.710;2023-04-15T02:56:49;100886.31;;;18.56;43.63
52393;BME280;38320;39.764;2.710;2023-04-15T02:59:16;100894.50;;;18.54;43.43
52393;BME280;38320;39.764;2.710;2023-04-15T03:01:41;100885.75;;;18.52;43.47
52393;BME280;38320;39.764;2.710;2023-04-15T03:04:07;100879.81;;;18.48;43.66
52393;BME280;38320;39.764;2.710;2023-04-15T03:06:33;100863.75;;;18.39;43.74
52393;BME280;38320;39.764;2.710;2023-04-15T03:08:59;100859.69;;;18.35;44.10
52393;BME280;38320;39.764;2.710;2023-04-15T03:11:27;100876.44;;;18.46;43.98
52393;BME280;38320;39.764;2.710;2023-04-15T03:13:52;100862.16;;;18.46;43.62
52393;BME280;38320;39.764;2.710;2023-04-15T03:16:18;100851.84;;;18.41;43.85
52393;BME280;38320;39.764;2.710;2023-04-15T03:18:43;100854.09;;;18.46;43.82
52393;BME280;38320;39.764;2.710;2023-04-15T03:21:09;100845.16;;;18.45;43.91
52393;BME280;38320;39.764;2.710;2023-04-15T03:23:34;100843.16;;;18.47;43.75
52393;BME280;38320;39.764;2.710;2023-04-15T03:26:03;100823.75;;;18.44;43.91
52393;BME280;38320;39.764;2.710;2023-04-15T03:28:30;100823.53;;;18.37;43.45
52393;BME280;38320;39.764;2.710;2023-04-15T03:30:55;100827.47;;;18.43;43.55
52393;BME280;38320;39.764;2.710;2023-04-15T03:33:21;100833.31;;;18.38;43.65
52393;BME280;38320;39.764;2.710;2023-04-15T03:35:47;100832.59;;;18.36;43.79
52393;BME280;38320;39.764;2.710;2023-04-15T03:38:12;100837.16;;;18.36;43.69
52393;BME280;38320;39.764;2.710;2023-04-15T03:40:39;100835.22;;;18.28;43.82
52393;BME280;38320;39.764;2.710;2023-04-15T03:43:06;100846.53;;;18.31;44.02
52393;BME280;38320;39.764;2.710;2023-04-15T03:45:32;100827.94;;;18.20;44.05
52393;BME280;38320;39.764;2.710;2023-04-15T03:47:57;100849.38;;;18.30;44.03
52393;BME280;38320;39.764;2.710;2023-04-15T03:50:23;100850.22;;;18.30;44.02
52393;BME280;38320;39.764;2.710;2023-04-15T03:52:48;100836.38;;;18.25;43.94
52393;BME280;38320;39.764;2.710;2023-04-15T03:55:14;100855.00;;;18.37;43.93
52393;BME280;38320;39.764;2.710;2023-04-15T03:57:40;100855.13;;;18.35;43.93
52393;BME280;38320;39.764;2.710;2023-04-15T04:00:06;100864.91;;;18.36;44.05
52393;BME280;38320;39.764;2.710;2023-04-15T04:02:33;100855.00;;;18.37;44.00
52393;BME280;38320;39.764;2.710;2023-04-15T04:04:59;100864.44;;;18.41;44.15
52393;BME280;38320;39.764;2.710;2023-04-15T04:07:24;100870.00;;;18.39;44.10
52393;BME280;38320;39.764;2.710;2023-04-15T04:09:50;100874.38;;;18.40;44.17
52393;BME280;38320;39.764;2.710;2023-04-15T04:12:15;100869.00;;;18.40;43.93
52393;BME280;38320;39.764;2.710;2023-04-15T04:14:41;100860.91;;;18.40;44.16
52393;BME280;38320;39.764;2.710;2023-04-15T04:17:07;100866.31;;;18.40;44.08
52393;BME280;38320;39.764;2.710;2023-04-15T04:19:33;100851.00;;;18.41;44.11
52393;BME280;38320;39.764;2.710;2023-04-15T04:21:58;100855.53;;;18.40;44.22
52393;BME280;38320;39.764;2.710;2023-04-15T04:24:24;100857.53;;;18.38;44.19
52393;BME280;38320;39.764;2.710;2023-04-15T04:26:49;100855.00;;;18.37;44.31
52393;BME280;38320;39.764;2.710;2023-04-15T04:29:15;100852.16;;;18.38;44.20
52393;BME280;38320;39.764;2.710;2023-04-15T04:31:41;100858.38;;;18.39;44.19
52393;BME280;38320;39.764;2.710;2023-04-15T04:34:06;100871.00;;;18.38;44.26
52393;BME280;38320;39.764;2.710;2023-04-15T04:36:32;100891.34;;;18.41;44.30
52393;BME280;38320;39.764;2.710;2023-04-15T04:38:57;100896.91;;;18.39;44.32
52393;BME280;38320;39.764;2.710;2023-04-15T04:41:22;100909.88;;;18.44;44.23
52393;BME280;38320;39.764;2.710;2023-04-15T04:43:48;100907.19;;;18.44;44.50
52393;BME280;38320;39.764;2.710;2023-04-15T04:46:13;100915.81;;;18.47;44.55
52393;BME280;38320;39.764;2.710;2023-04-15T04:48:39;100912.97;;;18.49;44.12
52393;BME280;38320;39.764;2.710;2023-04-15T04:51:05;100911.13;;;18.50;44.44
52393;BME280;38320;39.764;2.710;2023-04-15T04:53:31;100908.44;;;18.50;44.50
52393;BME280;38320;39.764;2.710;2023-04-15T04:55:57;100903.03;;;18.50;44.39
52393;BME280;38320;39.764;2.710;2023-04-15T04:58:23;100890.53;;;18.40;44.63
52393;BME280;38320;39.764;2.710;2023-04-15T05:00:48;100892.75;;;18.45;44.35
52393;BME280;38320;39.764;2.710;2023-04-15T05:03:13;100895.13;;;18.48;44.41
52393;BME280;38320;39.764;2.710;2023-04-15T05:05:39;100878.75;;;18.41;44.39
52393;BME280;38320;39.764;2.710;2023-04-15T05:08:05;100885.38;;;18.47;44.72
52393;BME280;38320;39.764;2.710;2023-04-15T05:10:31;100890.91;;;18.45;44.75
52393;BME280;38320;39.764;2.710;2023-04-15T05:12:57;100891.34;;;18.41;44.75
52393;BME280;38320;39.764;2.710;2023-04-15T05:15:22;100897.03;;;18.38;44.75
52393;BME280;38320;39.764;2.710;2023-04-15T05:17:48;100904.44;;;18.36;44.48
52393;BME280;38320;39.764;2.710;2023-04-15T05:20:14;100919.88;;;18.33;45.23
52393;BME280;38320;39.764;2.710;2023-04-15T05:22:40;100923.59;;;18.23;45.44
52393;BME280;38320;39.764;2.710;2023-04-15T05:25:05;100942.84;;;18.28;45.24
52393;BME280;38320;39.764;2.710;2023-04-15T05:27:31;100953.63;;;18.28;45.50
52393;BME280;38320;39.764;2.710;2023-04-15T05:29:57;100954.44;;;18.28;45.30
52393;BME280;38320;39.764;2.710;2023-04-15T05:32:22;100952.63;;;18.29;45.13
52393;BME280;38320;39.764;2.710;2023-04-15T05:34:47;100947.78;;;18.32;44.90
52393;BME280;38320;39.764;2.710;2023-04-15T05:37:13;100937.72;;;18.35;44.89
52393;BME280;38320;39.764;2.710;2023-04-15T05:39:38;100925.78;;;18.37;44.99
52393;BME280;38320;39.764;2.710;2023-04-15T05:42:04;100925.78;;;18.37;44.82
52393;BME280;38320;39.764;2.710;2023-04-15T05:44:30;100921.56;;;18.35;44.72
52393;BME280;38320;39.764;2.710;2023-04-15T05:46:56;100925.97;;;18.36;44.90
52393;BME280;38320;39.764;2.710;2023-04-15T05:49:22;100933.16;;;18.35;44.66
52393;BME280;38320;39.764;2.710;2023-04-15T05:51:47;100945.63;;;18.36;44.89
52393;BME280;38320;39.764;2.710;2023-04-15T05:54:13;100950.47;;;18.32;45.04
52393;BME280;38320;39.764;2.710;2023-04-15T05:56:38;100953.31;;;18.31;45.02
52393;BME280;38320;39.764;2.710;2023-04-15T05:59:04;100946.53;;;18.27;44.94
52393;BME280;38320;39.764;2.710;2023-04-15T06:01:29;100969.16;;;18.34;45.01
52393;BME280;38320;39.764;2.710;2023-04-15T06:03:55;100976.22;;;18.35;44.86
52393;BME280;38320;39.764;2.710;2023-04-15T06:06:21;100974.53;;;18.34;45.04
52393;BME280;38320;39.764;2.710;2023-04-15T06:08:46;100956.31;;;18.28;45.02
52393;BME280;38320;39.764;2.710;2023-04-15T06:11:12;100970.25;;;18.41;44.99
52393;BME280;38320;39.764;2.710;2023-04-15T06:13:37;100967.41;;;18.43;44.91
52393;BME280;38320;39.764;2.710;2023-04-15T06:16:03;100971.09;;;18.42;44.89
52393;BME280;38320;39.764;2.710;2023-04-15T06:18:28;100962.75;;;18.35;44.75
52393;BME280;38320;39.764;2.710;2023-04-15T06:20:54;100983.72;;;18.41;44.81
52393;BME280;38320;39.764;2.710;2023-04-15T06:23:20;100985.53;;;18.41;44.71
52393;BME280;38320;39.764;2.710;2023-04-15T06:25:45;100985.53;;;18.41;44.92
52393;BME280;38320;39.764;2.710;2023-04-15T06:28:11;100987.53;;;18.39;44.87
52393;BME280;38320;39.764;2.710;2023-04-15T06:30:36;100997.00;;;18.43;44.79
52393;BME280;38320;39.764;2.710;2023-04-15T06:33:03;100995.31;;;18.42;44.60
52393;BME280;38320;39.764;2.710;2023-04-15T06:35:30;100999.00;;;18.41;44.89
52393;BME280;38320;39.764;2.710;2023-04-15T06:37:56;101003.56;;;18.40;44.67
52393;BME280;38320;39.764;2.710;2023-04-15T06:40:21;100998.31;;;18.39;44.80
52393;BME280;38320;39.764;2.710;2023-04-15T06:42:47;101001.84;;;18.39;45.03
52393;BME280;38320;39.764;2.710;2023-04-15T06:45:12;101005.53;;;18.38;45.09
52393;BME280;38320;39.764;2.710;2023-04-15T06:47:38;101011.63;;;18.40;44.53
52393;BME280;38320;39.764;2.710;2023-04-15T06:50:04;101010.63;;;18.41;45.04
52393;BME280;38320;39.764;2.710;2023-04-15T06:52:30;101013.44;;;18.40;44.90
52393;BME280;38320;39.764;2.710;2023-04-15T06:54:56;101025.78;;;18.42;44.88
52393;BME280;38320;39.764;2.710;2023-04-15T06:57:23;101032.97;;;18.42;44.96
52393;BME280;38320;39.764;2.710;2023-04-15T06:59:49;101033.84;;;18.42;45.05
52393;BME280;38320;39.764;2.710;2023-04-15T07:02:14;101030.28;;;18.42;45.09
52393;BME280;38320;39.764;2.710;2023-04-15T07:04:40;101031.47;;;18.39;44.76
52393;BME280;38320;39.764;2.710;2023-04-15T07:07:05;101029.75;;;18.38;44.98
52393;BME280;38320;39.764;2.710;2023-04-15T07:09:32;101036.97;;;18.38;45.03
52393;BME280;38320;39.764;2.710;2023-04-15T07:11:58;101026.66;;;18.33;44.86
52393;BME280;38320;39.764;2.710;2023-04-15T07:14:24;101039.09;;;18.34;44.65
52393;BME280;38320;39.764;2.710;2023-04-15T07:16:49;101043.78;;;18.32;44.94
52393;BME280;38320;39.764;2.710;2023-04-15T07:19:15;101051.88;;;18.32;44.76
52393;BME280;38320;39.764;2.710;2023-04-15T07:21:40;101041.41;;;18.29;43.87
52393;BME280;38320;39.764;2.710;2023-04-15T07:24:06;101051.31;;;18.28;44.81
52393;BME280;38320;39.764;2.710;2023-04-15T07:26:31;101043.66;;;18.24;44.81
52393;BME280;38320;39.764;2.710;2023-04-15T07:28:57;101045.53;;;18.23;44.93
52393;BME280;38320;39.764;2.710;2023-04-15T07:31:22;101058.84;;;18.25;44.60
52393;BME280;38320;39.764;2.710;2023-04-15T07:33:48;101077.28;;;18.10;44.21
52393;BME280;38320;39.764;2.710;2023-04-15T07:36:13;101082.81;;;18.08;43.99
52393;BME280;38320;39.764;2.710;2023-04-15T07:38:39;101092.44;;;18.11;44.71
52393;BME280;38320;39.764;2.710;2023-04-15T07:41:05;101078.56;;;18.15;44.83
52393;BME280;38320;39.764;2.710;2023-04-15T07:43:30;101089.16;;;18.17;44.47
52393;BME280;38320;39.764;2.710;2023-04-15T07:45:56;101087.63;;;18.14;44.53
52393;BME280;38320;39.764;2.710;2023-04-15T07:48:21;101096.09;;;18.19;44.33
52393;BME280;38320;39.764;2.710;2023-04-15T07:50:47;101096.94;;;18.20;43.92
52393;BME280;38320;39.764;2.710;2023-04-15T07:53:12;101083.22;;;18.13;43.94
52393;BME280;38320;39.764;2.710;2023-04-15T07:55:38;101101.47;;;18.19;43.93
52393;BME280;38320;39.764;2.710;2023-04-15T07:58:04;101100.63;;;18.19;43.56
52393;BME280;38320;39.764;2.710;2023-04-15T08:00:30;101115.22;;;18.16;43.83
52393;BME280;38320;39.764;2.710;2023-04-15T08:02:56;101125.97;;;18.16;43.66
52393;BME280;38320;39.764;2.710;2023-04-15T08:05:23;101122.03;;;18.11;43.82
52393;BME280;38320;39.764;2.710;2023-04-15T08:07:50;101131.22;;;18.08;44.08
52393;BME280;38320;39.764;2.710;2023-04-15T08:10:15;101139.69;;;17.94;44.23
52393;BME280;38320;39.764;2.710;2023-04-15T08:12:41;101149.19;;;17.98;44.52
52393;BME280;38320;39.764;2.710;2023-04-15T08:15:07;101152.19;;;18.04;44.52
52393;BME280;38320;39.764;2.710;2023-04-15T08:17:33;101149.63;;;18.03;44.87
52393;BME280;38320;39.764;2.710;2023-04-15T08:19:59;101161.66;;;18.09;44.52
52393;BME280;38320;39.764;2.710;2023-04-15T08:22:24;101154.03;;;18.04;44.76
52393;BME280;38320;39.764;2.710;2023-04-15T08:24:50;101147.22;;;18.10;44.59
52393;BME280;38320;39.764;2.710;2023-04-15T08:27:16;101146.78;;;18.14;44.60
52393;BME280;38320;39.764;2.710;2023-04-15T08:29:41;101152.75;;;18.18;44.35
52393;BME280;38320;39.764;2.710;2023-04-15T08:32:07;101162.22;;;18.22;44.32
52393;BME280;38320;39.764;2.710;2023-04-15T08:34:34;101170.28;;;18.22;44.44
52393;BME280;38320;39.764;2.710;2023-04-15T08:36:59;101162.78;;;18.16;44.38
52393;BME280;38320;39.764;2.710;2023-04-15T08:39:25;101170.84;;;18.26;44.38
52393;BME280;38320;39.764;2.710;2023-04-15T08:42:00;101166.16;;;18.28;44.29
52393;BME280;38320;39.764;2.710;2023-04-15T08:44:34;101137.72;;;18.25;44.19
52393;BME280;38320;39.764;2.710;2023-04-15T08:47:06;101137.41;;;18.28;44.26
52393;BME280;38320;39.764;2.710;2023-04-15T08:49:35;101139.97;;;18.30;44.71
52393;BME280;38320;39.764;2.710;2023-04-15T08:52:03;101139.25;;;18.28;44.47
52393;BME280;38320;39.764;2.710;2023-04-15T08:54:29;101143.38;;;18.22;44.39
52393;BME280;38320;39.764;2.710;2023-04-15T08:56:56;101163.47;;;18.28;44.64
52393;BME280;38320;39.764;2.710;2023-04-15T08:59:23;101170.41;;;18.30;44.60
52393;BME280;38320;39.764;2.710;2023-04-15T09:01:49;101178.47;;;18.30;44.49
52393;BME280;38320;39.764;2.710;2023-04-15T09:04:16;101182.88;;;18.31;44.30
52393;BME280;38320;39.764;2.710;2023-04-15T09:06:41;101161.50;;;18.30;44.35
52393;BME280;38320;39.764;2.710;2023-04-15T09:09:07;101126.53;;;18.20;44.19
52393;BME280;38320;39.764;2.710;2023-04-15T09:11:33;101148.88;;;18.30;44.97
52393;BME280;38320;39.764;2.710;2023-04-15T09:13:58;101147.34;;;18.28;44.64
52393;BME280;38320;39.764;2.710;2023-04-15T09:16:24;101159.78;;;18.29;44.72
52393;BME280;38320;39.764;2.710;2023-04-15T09:18:50;101152.41;;;18.31;44.55
52393;BME280;38320;39.764;2.710;2023-04-15T09:21:16;101152.13;;;18.34;44.47
52393;BME280;38320;39.764;2.710;2023-04-15T09:23:59;101142.22;;;18.35;44.50
52393;BME280;38320;39.764;2.710;2023-04-15T09:26:32;101139.38;;;18.36;44.53
52393;BME280;38320;39.764;2.710;2023-04-15T09:31:31;101121.25;;;18.38;44.61
52393;BME280;38320;39.764;2.710;2023-04-15T09:33:56;101131.03;;;18.39;44.50
52393;BME280;38320;39.764;2.710;2023-04-15T09:36:22;101132.72;;;18.40;44.78
52393;BME280;38320;39.764;2.710;2023-04-15T09:38:56;101152.38;;;18.41;44.46
52393;BME280;38320;39.764;2.710;2023-04-15T09:41:24;101149.56;;;18.42;44.08
52393;BME280;38320;39.764;2.710;2023-04-15T09:43:49;101159.34;;;18.43;44.45
52393;BME280;38320;39.764;2.710;2023-04-15T09:46:15;101155.66;;;18.44;44.49
52393;BME280;38320;39.764;2.710;2023-04-15T09:48:41;101154.25;;;18.40;44.07
52393;BME280;38320;39.764;2.710;2023-04-15T09:51:06;101135.75;;;18.17;44.31
52393;BME280;38320;39.764;2.710;2023-04-15T09:53:34;101135.91;;;18.06;44.49
52393;BME280;38320;39.764;2.710;2023-04-15T09:56:00;101121.00;;;18.02;44.75
52393;BME280;38320;39.764;2.710;2023-04-15T09:58:31;101119.91;;;18.14;44.68
52393;BME280;38320;39.764;2.710;2023-04-15T10:00:58;101129.06;;;18.22;44.83
52393;BME280;38320;39.764;2.710;2023-04-15T10:03:27;101120.72;;;18.25;44.99
52393;BME280;38320;39.764;2.710;2023-04-15T10:05:55;101113.53;;;18.15;44.18
52393;BME280;38320;39.764;2.710;2023-04-15T10:08:26;101131.75;;;18.31;44.51
52393;BME280;38320;39.764;2.710;2023-04-15T10:10:52;101123.53;;;18.33;44.57
52393;BME280;38320;39.764;2.710;2023-04-15T10:13:25;101128.34;;;18.39;44.34
52393;BME280;38320;39.764;2.710;2023-04-15T10:16:19;101130.03;;;18.40;44.37
52393;BME280;38320;39.764;2.710;2023-04-15T10:18:50;101124.22;;;18.45;43.99
52393;BME280;38320;39.764;2.710;2023-04-15T10:21:19;101131.00;;;18.49;43.85
52393;BME280;38320;39.764;2.710;2023-04-15T10:23:47;101124.91;;;18.37;43.03
52393;BME280;38320;39.764;2.710;2023-04-15T10:26:13;101111.47;;;18.37;43.63
52393;BME280;38320;39.764;2.710;2023-04-15T10:28:40;101098.44;;;18.42;43.84
52393;BME280;38320;39.764;2.710;2023-04-15T10:31:06;101099.81;;;18.46;43.29
52393;BME280;38320;39.764;2.710;2023-04-15T10:33:32;101086.66;;;18.43;42.88
52393;BME280;38320;39.764;2.710;2023-04-15T10:35:58;101091.75;;;18.46;43.35
52393;BME280;38320;39.764;2.710;2023-04-15T10:38:40;101097.25;;;18.55;43.43
52393;BME280;38320;39.764;2.710;2023-04-15T10:41:19;101096.94;;;18.58;42.99
52393;BME280;38320;39.764;2.710;2023-04-15T10:44:02;101098.66;;;18.59;43.04
52393;BME280;38320;39.764;2.710;2023-04-15T10:51:32;101083.94;;;18.53;42.49
52393;BME280;38320;39.764;2.710;2023-04-15T10:54:00;101088.88;;;18.58;42.76
52393;BME280;38320;39.764;2.710;2023-04-15T10:56:29;101081.50;;;18.60;42.67
52393;BME280;38320;39.764;2.710;2023-04-15T10:58:58;101075.81;;;18.63;42.62
52393;BME280;38320;39.764;2.710;2023-04-15T11:01:53;101080.34;;;18.63;42.62
52393;BME280;38320;39.764;2.710;2023-04-15T11:04:51;101067.44;;;18.66;42.32
52393;BME280;38320;39.764;2.710;2023-04-15T11:12:37;101057.81;;;18.64;42.38
52393;BME280;38320;39.764;2.710;2023-04-15T11:21:03;101043.91;;;18.68;42.09
52393;BME280;38320;39.764;2.710;2023-04-15T11:23:35;101040.38;;;18.68;41.94
52393;BME280;38320;39.764;2.710;2023-04-15T11:26:06;101045.44;;;18.71;42.21
52393;BME280;38320;39.764;2.710;2023-04-15T11:28:34;101038.91;;;18.73;41.82
52393;BME280;38320;39.764;2.710;2023-04-15T11:31:14;101048.53;;;18.76;41.73
52393;BME280;38320;39.764;2.710;2023-04-15T11:36:19;101026.16;;;18.75;41.60
52393;BME280;38320;39.764;2.710;2023-04-15T11:38:47;101025.31;;;18.75;41.75
52393;BME280;38320;39.764;2.710;2023-04-15T11:41:12;101016.53;;;18.73;41.90
52393;BME280;38320;39.764;2.710;2023-04-15T11:43:38;101013.53;;;18.76;41.85
52393;BME280;38320;39.764;2.710;2023-04-15T11:46:04;101020.47;;;18.79;41.78
52393;BME280;38320;39.764;2.710;2023-04-15T11:48:34;101018.63;;;18.79;41.66
52393;BME280;38320;39.764;2.710;2023-04-15T11:51:02;101018.47;;;18.81;41.81
52393;BME280;38320;39.764;2.710;2023-04-15T11:56:07;101007.16;;;18.77;41.69
52393;BME280;38320;39.764;2.710;2023-04-15T11:58:34;101016.47;;;18.83;41.67
52393;BME280;38320;39.764;2.710;2023-04-15T12:01:02;101026.63;;;18.89;41.52
52393;BME280;38320;39.764;2.710;2023-04-15T12:03:30;101026.47;;;18.90;41.23
52393;BME280;38320;39.764;2.710;2023-04-15T12:11:41;101014.66;;;19.01;41.41
52393;BME280;38320;39.764;2.710;2023-04-15T12:14:26;101020.47;;;18.97;40.57
52393;BME280;38320;39.764;2.710;2023-04-15T12:17:03;101000.09;;;18.94;40.68
52393;BME280;38320;39.764;2.710;2023-04-15T12:19:40;101017.78;;;18.97;40.79
52393;BME280;38320;39.764;2.710;2023-04-15T12:22:16;101008.69;;;18.98;41.11
52393;BME280;38320;39.764;2.710;2023-04-15T12:24:43;101007.59;;;19.00;41.16
52393;BME280;38320;39.764;2.710;2023-04-15T12:27:13;101010.97;;;19.02;41.05
52393;BME280;38320;39.764;2.710;2023-04-15T12:29:40;101007.00;;;18.97;41.04
52393;BME280;38320;39.764;2.710;2023-04-15T12:32:07;101020.75;;;19.03;41.02
52393;BME280;38320;39.764;2.710;2023-04-15T12:34:50;101017.75;;;19.07;40.57
52393;BME280;38320;39.764;2.710;2023-04-15T12:37:16;101004.44;;;19.05;40.57
52393;BME280;38320;39.764;2.710;2023-04-15T12:39:43;101002.75;;;19.04;40.98
52393;BME280;38320;39.764;2.710;2023-04-15T12:42:10;101011.06;;;19.11;41.05
52393;BME280;38320;39.764;2.710;2023-04-15T12:44:37;101001.06;;;19.03;40.77
52393;BME280;38320;39.764;2.710;2023-04-15T12:47:03;100993.97;;;19.02;41.21
52393;BME280;38320;39.764;2.710;2023-04-15T12:49:30;101004.97;;;19.09;40.85
52393;BME280;38320;39.764;2.710;2023-04-15T12:51:58;100996.22;;;19.07;40.67
52393;BME280;38320;39.764;2.710;2023-04-15T12:54:27;101003.13;;;19.09;40.79
52393;BME280;38320;39.764;2.710;2023-04-15T12:56:54;100979.50;;;19.03;40.11
52393;BME280;38320;39.764;2.710;2023-04-15T12:59:20;100987.13;;;19.08;40.95
52393;BME280;38320;39.764;2.710;2023-04-15T13:01:46;100974.34;;;19.10;40.58
52393;BME280;38320;39.764;2.710;2023-04-15T13:04:13;100974.66;;;19.07;39.41
52393;BME280;38320;39.764;2.710;2023-04-15T13:06:38;100964.78;;;18.97;40.18
52393;BME280;38320;39.764;2.710;2023-04-15T13:09:04;100980.34;;;19.03;40.80
52393;BME280;38320;39.764;2.710;2023-04-15T13:11:30;100953.44;;;18.94;39.25
52393;BME280;38320;39.764;2.710;2023-04-15T13:14:01;100975.53;;;18.97;39.33
52393;BME280;38320;39.764;2.710;2023-04-15T13:16:27;100968.03;;;19.01;40.22
52393;BME280;38320;39.764;2.710;2023-04-15T13:18:52;100954.25;;;19.04;40.46